Pagina principale
METAR-TAF:

METAR-TAF

Aeroporti :

Newport, Vermont, Stati Uniti

latitudine: 44-53-20N, longitudine: 072-13-45W, altezza: 283 m

Osservazione

Il bollettino è stato emesso 11 minuti fa, alle 07:55 UTC
Vento calmo
Temperature 4°C
Umidità 100%
Pressione 1018 hPa
Visibilità: 16.1 km
Cielo sereno

METAR: KEFK 240755Z AUTO 00000KT 10SM CLR 04/04 A3005 RMK AO2 T00410041

Ora: 04:06 (08:06 UTC)


TAF: mancante

Osservazioni e previsioni meteorologiche di più di 4000 aeroporti (messaggi METAR e TAF).

Le stazioni disponibili sono rappresentate dai dischi gialli e rossi sulla carta.

Puntare il mouse per vedere il nome della stazione.

Clicca sopra per visualizzare le osservazioni e previsioni meteorologiche.

Per cambiare la mappa : fare clic sui pulsanti verdi con una croce nera per ingrandire, il pulsante verde con un trattino per diminuire, o sulla freccia verde per le mappe adiacenti.


METAR-TAF: